Terminal Aerodrome Forecast
Issued by NWS

Home | Current Version | Previous Version | Text Only | Print | Product List | Glossary Off
Versions: 1 2 3 4 5 6 7 8 9 10 11 12 13 14 15 16 17 18 19

000
FTUS43 KBIS 041128
TAFDIK
TAF
KDIK 041128Z 0412/0512 17007KT 3SM FU SCT070
     FM041600 17013KT P6SM SKC
     FM042100 20014KT P6SM SKC
     FM050300 18010KT P6SM SCT050 SCT100
     FM050600 36012KT P6SM SCT020 BKN035 OVC050=

USA.gov is the U.S. government's official web portal to all federal, state and local government web resources and services.